Aviation Digital Data Service (ADDS)

Output produced by METARs form (1651 UTC 23 January 2019)
found at http://www.aviationweather.gov/metar/data/
 
METAR text: RJNY 230047Z 26015KT 9999 FEW025 10/M04 Q1015 RMK 1CU025 A2998
Conditions at: RJNY (SHIZUHAMA (JASDF, JP) observed 0047 UTC 23 January 2019
Temperature: 10.0°C (50°F)
Dewpoint: -4.0°C (25°F) [RH = 37%]
Pressure (altimeter): 29.97 inches Hg (1015.0 mb)
Winds: from the W (260 degrees) at 17 MPH (15 knots; 7.7 m/s)
Visibility: 6 or more miles (10+ km)
Ceiling: at least 12,000 feet AGL
Clouds: few clouds at 2500 feet AGL
Weather: no significant weather observed at this time

METAR text: RJNY 220537Z 26017G27KT 9999 FEW025 13/M06 Q1009 RMK 1CU025 A2982
Conditions at: RJNY (SHIZUHAMA (JASDF, JP) observed 0537 UTC 22 January 2019
Temperature: 13.0°C (55°F)
Dewpoint: -6.0°C (21°F) [RH = 26%]
Pressure (altimeter): 29.79 inches Hg (1009.0 mb)
Winds: from the W (260 degrees) at 20 MPH (17 knots; 8.7 m/s)
gusting to 31 MPH (27 knots; 13.9 m/s)
Visibility: 6 or more miles (10+ km)
Ceiling: at least 12,000 feet AGL
Clouds: few clouds at 2500 feet AGL
Weather: no significant weather observed at this time